Latest Weather Observations for Walungurru (Kintore)

IDD60801

Issued at 9:51 am CST Monday 16 September 2019 (issued every 10 minutes, with the page automatically refreshed every 10 minutes)

About weather observations | Map of weather stations | Latest weather observations for NT | Other Formats
Station Details ID: 015664 Name: WALUNGURRU AIRPORT Lat: -23.27 Lon: 129.38 Height: 454.3 m
Data from the previous 72 hours. | See also: Recent months at Walungurru (Kintore)
Date/Time
CST
Temp
°C
App
Temp
°C
Dew
Point
°C
Rel
Hum
%
Delta-T
°C
Wind Press
QNH
hPa
Press
MSL
hPa
Rain since
9am
mm
Dir  Spd
km/h
Gust
km/h
Spd
kts
Gust
kts
16/09:30am 26.8 20.1 -10.2 8 14.6 NE 19 24 10 13 1020.2 1017.9 0.0
16/09:00am 25.2 18.5 -9.9 9 13.7 ENE 19 20 10 11 1020.1 1017.8 0.0
16/08:30am 23.9 17.6 -10.9 9 13.2 ENE 17 20 9 11 1019.9 1017.5 0.0
16/08:00am 23.5 17.1 -11.2 9 13.1 ENE 17 22 9 12 1019.5 1017.1 0.0
16/07:30am 22.1 15.8 -10.9 10 12.3 ENE 17 22 9 12 1019.2 1016.8 0.0
16/07:00am 20.2 13.9 -10.1 12 11.2 ENE 17 20 9 11 1018.8 1016.4 0.0
16/06:30am 19.8 14.2 -11.5 11 11.2 E 13 15 7 8 1018.5 1016.2 0.0
16/06:00am 18.5 13.3 -11.4 12 10.6 E 11 15 6 8 1018.2 1015.9 0.0
16/05:30am 19.2 14.1 -9.8 13 10.7 E 11 17 6 9 1018.0 1015.7 0.0
16/05:00am 16.8 10.8 -10.8 14 9.7 E 15 19 8 10 1017.8 1015.4 0.0
16/04:30am 15.7 10.8 -12.6 13 9.4 NE 9 11 5 6 1017.7 1015.3 0.0
16/04:00am 17.9 13.6 -11.9 12 10.4 ESE 6 9 3 5 1017.5 1015.1 0.0
16/03:30am 20.8 15.3 -9.6 12 11.4 ESE 13 20 7 11 1017.7 1015.3 0.0
16/03:00am 18.9 13.2 -12.2 11 10.9 SE 13 15 7 8 1017.8 1015.4 0.0
16/02:30am 21.9 15.9 -11.1 10 12.2 SSE 15 19 8 10 1018.1 1015.8 0.0
16/02:00am 21.1 14.8 -10.5 11 11.7 SSE 17 20 9 11 1018.2 1015.9 0.0
16/01:30am 21.3 14.0 -10.3 11 11.8 SSE 22 30 12 16 1018.5 1016.2 0.0
16/01:00am 19.3 13.6 -11.9 11 11.0 SSE 13 15 7 8 1018.5 1016.2 0.0
16/12:30am 19.6 14.3 -11.6 11 11.1 SE 11 11 6 6 1018.7 1016.3 0.0
16/12:00am 20.2 15.7 -11.2 11 11.4 E 7 9 4 5 1018.8 1016.4 0.0
 
Date/Time
CST
Temp
°C
App
Temp
°C
Dew
Point
°C
Rel
Hum
%
Delta-T
°C
Wind Press
QNH
hPa
Press
MSL
hPa
Rain since
9am
mm
Dir  Spd
km/h
Gust
km/h
Spd
kts
Gust
kts
15/11:30pm 20.1 15.6 -11.2 11 11.3 ESE 7 9 4 5 1018.8 1016.4 0.0
15/11:00pm 19.9 16.7 -12.6 10 11.4 CALM 0 7 0 4 1018.9 1016.5 0.0
15/10:30pm 21.2 18.0 -11.6 10 11.9 CALM 0 6 0 3 1019.1 1016.7 0.0
15/10:00pm 22.9 18.1 -10.3 10 12.6 ESE 9 11 5 6 1019.2 1016.8 0.0
15/09:30pm 23.1 18.2 -11.5 9 12.9 SE 9 11 5 6 1019.2 1016.8 0.0
15/09:00pm 24.5 20.1 -10.4 9 13.4 SSE 7 11 4 6 1019.0 1016.6 0.0
15/08:30pm 24.5 20.0 -11.9 8 13.6 SE 7 9 4 5 1018.9 1016.5 0.0
15/08:00pm 26.1 21.7 -10.7 8 14.4 ESE 7 9 4 5 1018.7 1016.3 0.0
15/07:30pm 27.4 22.5 -11.4 7 15.1 E 9 13 5 7 1018.1 1015.8 0.0
15/07:00pm 30.1 25.2 -11.4 6 16.6 ENE 9 11 5 6 1017.9 1015.5 0.0
15/06:30pm 32.1 27.3 -9.9 6 17.6 E 9 11 5 6 1017.8 1015.4 0.0
15/06:00pm 33.0 26.6 -11.6 5 18.3 E 17 24 9 13 1017.7 1015.3 0.0
15/05:30pm 33.1 28.2 -11.5 5 18.3 NE 9 17 5 9 1017.5 1015.1 0.0
15/05:00pm 33.2 28.3 -11.5 5 18.4 E 9 17 5 9 1017.4 1015.0 0.0
15/04:30pm 33.4 27.0 -11.3 5 18.5 NE 17 28 9 15 1017.6 1015.2 0.0
15/04:00pm 33.7 28.5 -11.1 5 18.7 E 11 26 6 14 1017.7 1015.3 0.0
15/03:30pm 33.6 26.8 -11.2 5 18.6 ESE 19 26 10 14 1017.7 1015.3 0.0
15/03:00pm 33.2 26.8 -11.5 5 18.4 ENE 17 26 9 14 1018.1 1015.8 0.0
15/02:30pm 34.1 27.8 -10.8 5 18.8 ESE 17 26 9 14 1018.4 1016.1 0.0
15/02:00pm 33.6 26.3 -11.2 5 18.6 NNE 22 33 12 18 1019.1 1016.7 0.0
15/01:30pm 32.5 26.6 -9.7 6 17.8 ENE 15 28 8 15 1019.7 1017.3 0.0
15/01:00pm 33.2 27.9 -11.5 5 18.4 N 11 26 6 14 1020.1 1017.8 0.0
15/12:30pm 32.7 26.5 -9.5 6 17.8 NE 17 26 9 14 1020.7 1018.4 0.0
15/12:00pm 31.7 25.8 -10.2 6 17.4 NE 15 26 8 14 1021.3 1018.9 0.0
15/11:30am 31.7 24.5 -10.2 6 17.4 N 22 32 12 17 1021.5 1019.1 0.0
15/11:00am 31.0 23.7 -10.7 6 17.1 NNE 22 32 12 17 1021.9 1019.5 0.0
15/10:30am 30.3 22.7 -9.3 7 16.4 NNE 24 30 13 16 1022.2 1019.9 0.0
15/10:00am 29.0 21.4 -10.2 7 15.9 NNE 24 30 13 16 1022.4 1020.1 0.0
15/09:30am 26.6 19.7 -10.3 8 14.5 NE 20 26 11 14 1022.7 1020.4 0.0
15/09:00am 25.3 18.7 -9.8 9 13.8 ENE 19 22 10 12 1022.5 1020.2 0.0
15/08:30am 23.0 16.1 -10.2 10 12.6 ENE 20 26 11 14 1022.6 1020.3 0.0
15/08:00am 21.8 14.9 -11.1 10 12.2 ENE 20 28 11 15 1022.3 1020.0 0.0
15/07:30am 21.0 13.7 -10.5 11 11.6 ENE 22 28 12 15 1021.8 1019.4 0.0
15/07:00am 20.4 13.5 -11.0 11 11.5 ENE 20 26 11 14 1021.5 1019.1 0.0
15/06:30am 20.6 13.6 -12.0 10 11.6 ENE 20 26 11 14 1021.3 1018.9 0.0
15/06:00am 20.9 13.5 -11.8 10 11.8 ENE 22 28 12 15 1020.9 1018.6 0.0
15/05:30am 21.7 14.4 -11.2 10 12.1 ENE 22 30 12 16 1020.6 1018.3 0.0
15/05:00am 21.9 14.9 -12.4 9 12.4 ENE 20 24 11 13 1020.2 1017.9 0.0
15/04:30am 22.2 15.2 -12.1 9 12.5 ENE 20 26 11 14 1019.8 1017.4 0.0
15/04:00am 22.0 15.2 -12.3 9 12.4 ENE 19 22 10 12 1019.7 1017.3 0.0
15/03:30am 21.1 15.0 -13.0 9 12.0 ENE 15 17 8 9 1019.8 1017.4 0.0
15/03:00am 22.2 15.7 -13.6 8 12.6 ENE 17 20 9 11 1020.0 1017.7 0.0
15/02:30am 21.5 15.7 -14.1 8 12.4 ENE 13 19 7 10 1020.2 1017.9 0.0
15/02:00am 22.5 16.0 -13.4 8 12.8 ENE 17 19 9 10 1020.2 1017.9 0.0
15/01:30am 22.9 16.4 -13.1 8 12.9 ENE 17 20 9 11 1020.4 1018.1 0.0
15/01:00am 22.1 16.0 -13.7 8 12.6 E 15 17 8 9 1020.4 1018.1 0.0
15/12:30am 21.7 15.6 -12.5 9 12.3 E 15 17 8 9 1020.6 1018.3 0.0
15/12:00am 23.1 17.0 -12.9 8 13.0 ENE 15 19 8 10 1020.8 1018.5 0.0
 
Date/Time
CST
Temp
°C
App
Temp
°C
Dew
Point
°C
Rel
Hum
%
Delta-T
°C
Wind Press
QNH
hPa
Press
MSL
hPa
Rain since
9am
mm
Dir  Spd
km/h
Gust
km/h
Spd
kts
Gust
kts
14/11:30pm 22.7 16.2 -13.2 8 12.9 E 17 17 9 9 1020.8 1018.5 0.0
14/11:00pm 22.5 16.8 -13.4 8 12.8 E 13 15 7 8 1021.1 1018.7 0.0
14/10:30pm 23.2 17.5 -12.8 8 13.1 E 13 15 7 8 1021.2 1018.8 0.0
14/10:00pm 23.0 17.3 -13.0 8 13.0 E 13 13 7 7 1021.3 1018.9 0.0
14/09:30pm 24.6 18.1 -13.4 7 13.8 E 17 19 9 10 1021.4 1019.0 0.0
14/09:00pm 25.9 19.8 -12.5 7 14.4 E 15 17 8 9 1021.4 1019.0 0.0
14/08:30pm 25.6 19.5 -12.7 7 14.3 E 15 17 8 9 1020.9 1018.6 0.0
14/08:00pm 25.9 20.1 -14.4 6 14.7 E 13 15 7 8 1020.6 1018.3 0.0
14/07:30pm 27.0 21.2 -13.6 6 15.1 E 13 15 7 8 1020.4 1018.1 0.0
14/07:00pm 28.6 22.8 -14.7 5 16.2 E 13 17 7 9 1020.1 1017.8 0.0
14/06:30pm 31.1 24.2 -12.9 5 17.3 ENE 19 24 10 13 1019.9 1017.5 0.0
14/06:00pm 32.0 25.6 -12.3 5 17.8 ENE 17 24 9 13 1019.6 1017.2 0.0
14/05:30pm 32.5 25.5 -11.9 5 18.0 NE 20 35 11 19 1019.7 1017.3 0.0
14/05:00pm 32.8 25.8 -11.7 5 18.2 ENE 20 32 11 17 1019.8 1017.4 0.0
14/04:30pm 32.8 25.4 -11.7 5 18.2 ENE 22 32 12 17 1019.9 1017.5 0.0
14/04:00pm 33.5 25.4 -11.2 5 18.6 NE 26 35 14 19 1020.0 1017.7 0.0
14/03:30pm 33.6 25.9 -11.2 5 18.6 NE 24 44 13 24 1020.1 1017.8 0.0
14/03:00pm 33.0 26.0 -11.6 5 18.3 ENE 20 35 11 19 1020.5 1018.2 0.0
14/02:30pm 32.9 25.7 -9.4 6 17.9 ENE 22 35 12 19 1020.9 1018.6 0.0
14/02:00pm 32.6 24.3 -9.6 6 17.9 ENE 28 44 15 24 1021.7 1019.3 0.0
14/01:32pm 32.8 24.1 -9.4 6 17.9 ENE 30 52 16 28 1022.1 1019.8 0.0
14/01:30pm 33.4 25.5 -9.0 6 18.2 ENE 26 44 14 24 1022.0 1019.7 0.0
14/01:00pm 32.4 23.8 -7.8 7 17.5 NE 30 43 16 23 1022.6 1020.3 0.0
14/12:30pm 31.2 22.6 -8.6 7 16.8 ENE 30 44 16 24 1023.4 1021.0 0.0
14/12:03pm 31.2 22.9 -8.6 7 16.9 ENE 28 52 15 28 1023.6 1021.2 0.0
14/12:00pm 31.1 23.2 -8.7 7 16.8 ENE 26 39 14 21 1023.7 1021.3 0.0
14/11:30am 31.3 23.0 -8.6 7 16.9 NE 28 43 15 23 1024.0 1021.7 0.0
14/11:00am 30.5 22.2 -9.1 7 16.6 NE 28 37 15 20 1024.4 1022.1 0.0
14/10:30am 29.7 21.3 -9.7 7 16.1 ENE 28 35 15 19 1024.7 1022.4 0.0
14/10:00am 29.2 20.8 -10.1 7 16.0 NE 28 33 15 18 1024.9 1022.6 0.0
14/09:30am 27.4 19.0 -9.7 8 14.9 NE 28 33 15 18 1025.1 1022.8 0.0
14/09:00am 26.5 19.0 -8.9 9 14.3 ENE 24 28 13 15 1025.1 1022.8 0.0
14/08:30am 24.5 17.3 -9.1 10 13.2 ENE 22 30 12 16 1025.0 1022.7 0.0
14/08:00am 22.7 15.9 -9.2 11 12.4 ENE 20 28 11 15 1024.8 1022.5 0.0
14/07:30am 22.2 15.1 -8.5 12 11.9 ENE 22 28 12 15 1024.4 1022.1 0.0
14/07:00am 21.3 14.1 -9.2 12 11.6 ENE 22 28 12 15 1024.1 1021.8 0.0
14/06:30am 21.3 14.5 -9.2 12 11.6 ENE 20 26 11 14 1023.8 1021.4 0.0
14/06:00am 21.4 14.6 -9.1 12 11.6 ENE 20 26 11 14 1023.4 1021.0 0.0
14/05:30am 22.0 15.2 -9.8 11 12.0 ENE 20 26 11 14 1023.0 1020.7 0.0
14/05:00am 22.3 15.1 -9.5 11 12.2 E 22 28 12 15 1022.7 1020.4 0.0
14/04:30am 22.7 15.5 -9.2 11 12.3 E 22 28 12 15 1022.5 1020.2 0.0
14/04:00am 23.3 16.4 -10.0 10 12.8 E 20 26 11 14 1022.4 1020.1 0.0
14/03:30am 23.4 16.6 -9.9 10 12.8 E 20 28 11 15 1022.5 1020.2 0.0
14/03:00am 23.7 16.9 -9.7 10 12.9 E 20 24 11 13 1022.7 1020.4 0.0
14/02:30am 24.8 17.6 -10.2 9 13.6 E 22 30 12 16 1022.9 1020.6 0.0
14/02:00am 24.9 18.0 -10.1 9 13.6 E 20 28 11 15 1023.0 1020.7 0.0
14/01:30am 24.2 17.8 -12.1 8 13.5 ESE 17 20 9 11 1023.1 1020.8 0.0
14/01:00am 25.1 18.1 -11.4 8 13.9 ESE 20 24 11 13 1023.2 1020.9 0.0
14/12:30am 23.6 17.5 -12.5 8 13.2 SE 15 20 8 11 1023.4 1021.0 0.0
14/12:00am 21.1 15.4 -13.0 9 12.0 SE 13 19 7 10 1023.4 1021.0 0.0
 
Date/Time
CST
Temp
°C
App
Temp
°C
Dew
Point
°C
Rel
Hum
%
Delta-T
°C
Wind Press
QNH
hPa
Press
MSL
hPa
Rain since
9am
mm
Dir  Spd
km/h
Gust
km/h
Spd
kts
Gust
kts
13/11:30pm 23.2 17.1 -12.8 8 13.0 E 15 19 8 10 1023.4 1021.0 0.0
13/11:00pm 23.5 17.0 -12.6 8 13.2 E 17 20 9 11 1023.4 1021.0 0.0
13/10:30pm 23.8 17.3 -14.0 7 13.5 E 17 17 9 9 1023.4 1021.0 0.0
13/10:00pm 23.9 17.4 -14.0 7 13.6 E 17 17 9 9 1023.1 1020.8 0.0
13/09:30pm 23.8 17.7 -12.4 8 13.3 E 15 17 8 9 1023.2 1020.9 0.0
13/09:00pm 23.7 18.0 -12.5 8 13.3 E 13 15 7 8 1023.1 1020.8 0.0
13/08:30pm 23.9 18.2 -12.3 8 13.3 E 13 15 7 8 1022.8 1020.5 0.0
13/08:00pm 24.6 18.9 -11.8 8 13.7 E 13 15 7 8 1022.5 1020.2 0.0
13/07:30pm 25.8 20.1 -12.6 7 14.4 ENE 13 17 7 9 1022.0 1019.7 0.0
13/07:00pm 28.8 22.4 -12.3 6 16.0 ENE 17 20 9 11 1021.8 1019.4 0.0
13/06:30pm 30.4 22.6 -13.4 5 17.0 ENE 24 32 13 17 1021.4 1019.0 0.0
13/06:00pm 31.3 22.7 -12.8 5 17.4 NE 28 35 15 19 1021.4 1019.0 0.0
13/05:31pm 31.9 23.0 -12.4 5 17.8 ENE 30 48 16 26 1021.2 1018.8 0.0
13/05:30pm 31.9 23.0 -12.4 5 17.7 ENE 30 39 16 21 1021.2 1018.8 0.0
13/05:00pm 32.0 22.0 -15.0 4 18.1 ENE 35 48 19 26 1021.3 1018.9 0.0
13/04:30pm 32.5 22.5 -14.7 4 18.3 ENE 35 46 19 25 1021.2 1018.8 0.0
13/04:08pm 32.4 23.0 -14.7 4 18.3 ENE 32 52 17 28 1021.2 1018.8 0.0
13/04:00pm 32.4 22.6 -18.2 3 18.6 ENE 33 44 18 24 1021.4 1019.0 0.0
13/03:30pm 32.7 22.5 -18.0 3 18.7 ENE 35 46 19 25 1021.5 1019.1 0.0
13/03:19pm 32.6 22.4 -18.0 3 18.7 ENE 35 54 19 29 1021.5 1019.1 0.0
13/03:00pm 32.3 23.3 -22.9 2 18.7 ENE 28 43 15 23 1021.8 1019.4 0.0
13/02:43pm 32.8 23.4 -22.6 2 19.1 ENE 30 48 16 26 1022.0 1019.7 0.0
13/02:30pm 32.4 22.6 -22.8 2 18.8 ENE 32 44 17 24 1022.2 1019.9 0.0
13/02:00pm 31.4 22.8 -23.5 2 18.3 ENE 26 37 14 20 1022.8 1020.5 0.0
13/01:30pm 31.2 23.3 -23.6 2 18.1 ENE 22 35 12 19 1023.4 1021.0 0.0
13/01:00pm 30.4 21.5 -19.5 3 17.5 ENE 28 54 15 29 1023.8 1021.4 0.0
13/12:54pm 31.1 23.0 -19.0 3 17.9 ENE 24 54 13 29 1023.7 1021.3 0.0
13/12:30pm 30.0 21.5 -19.8 3 17.3 ENE 26 35 14 19 1024.2 1021.9 0.0
13/12:00pm 29.3 21.3 -16.9 4 16.7 ENE 24 33 13 18 1024.7 1022.4 0.0
13/11:30am 28.4 20.0 -17.5 4 16.2 ENE 26 35 14 19 1025.1 1022.8 0.0
13/11:00am 27.0 18.3 -15.8 5 15.4 ENE 28 37 15 20 1025.4 1023.1 0.0
13/10:30am 26.3 17.2 -16.3 5 15.0 NE 30 37 16 20 1025.7 1023.3 0.0
13/10:00am 25.7 16.9 -16.7 5 14.8 ENE 28 35 15 19 1026.1 1023.8 0.0

Other formats

Comma delimited format used in spreadsheet applications
http://www.bom.gov.au/fwo/IDD60801/IDD60801.94321.axf

JavaScript Object Notation format (JSON) in row-major order
http://www.bom.gov.au/fwo/IDD60801/IDD60801.94321.json

Data quality

Most of these data are generated automatically and are frequently updated. Quality checks on data are not normally performed. It is possible for incorrect values to appear. Refer to information at About Latest Weather Observations and please check the disclaimer before using these data.